sensor_id;sensor_type;location;lat;lon;timestamp;P1;durP1;ratioP1;P2;durP2;ratioP2
10120;SDS011;5100;45.176;5.714;2023-04-24T00:00:56;1.52;;;1.20;;
10120;SDS011;5100;45.176;5.714;2023-04-24T00:03:24;1.08;;;1.00;;
10120;SDS011;5100;45.176;5.714;2023-04-24T00:05:50;1.08;;;1.00;;
10120;SDS011;5100;45.176;5.714;2023-04-24T00:08:16;1.85;;;1.30;;
10120;SDS011;5100;45.176;5.714;2023-04-24T00:10:43;1.20;;;1.12;;
10120;SDS011;5100;45.176;5.714;2023-04-24T00:13:09;1.30;;;1.20;;
10120;SDS011;5100;45.176;5.714;2023-04-24T00:15:35;1.67;;;1.10;;
10120;SDS011;5100;45.176;5.714;2023-04-24T00:18:02;2.83;;;1.20;;
10120;SDS011;5100;45.176;5.714;2023-04-24T00:20:28;1.52;;;1.10;;
10120;SDS011;5100;45.176;5.714;2023-04-24T00:23:01;1.95;;;1.20;;
10120;SDS011;5100;45.176;5.714;2023-04-24T00:25:27;1.40;;;1.30;;
10120;SDS011;5100;45.176;5.714;2023-04-24T00:27:53;1.30;;;1.20;;
10120;SDS011;5100;45.176;5.714;2023-04-24T00:30:19;1.95;;;1.20;;
10120;SDS011;5100;45.176;5.714;2023-04-24T00:32:46;1.20;;;1.10;;
10120;SDS011;5100;45.176;5.714;2023-04-24T00:35:12;1.55;;;1.45;;
10120;SDS011;5100;45.176;5.714;2023-04-24T00:37:38;1.92;;;1.15;;
10120;SDS011;5100;45.176;5.714;2023-04-24T00:40:04;1.15;;;1.15;;
10120;SDS011;5100;45.176;5.714;2023-04-24T00:42:31;1.30;;;1.20;;
10120;SDS011;5100;45.176;5.714;2023-04-24T00:44:58;1.23;;;1.12;;
10120;SDS011;5100;45.176;5.714;2023-04-24T00:47:25;1.08;;;1.08;;
10120;SDS011;5100;45.176;5.714;2023-04-24T00:49:52;2.95;;;1.30;;
10120;SDS011;5100;45.176;5.714;2023-04-24T00:52:18;1.27;;;1.20;;
10120;SDS011;5100;45.176;5.714;2023-04-24T00:54:44;1.87;;;1.35;;
10120;SDS011;5100;45.176;5.714;2023-04-24T00:57:11;1.50;;;1.40;;
10120;SDS011;5100;45.176;5.714;2023-04-24T00:59:40;1.83;;;1.55;;
10120;SDS011;5100;45.176;5.714;2023-04-24T01:02:08;2.10;;;1.50;;
10120;SDS011;5100;45.176;5.714;2023-04-24T01:04:36;1.80;;;1.70;;
10120;SDS011;5100;45.176;5.714;2023-04-24T01:07:03;2.03;;;1.92;;
10120;SDS011;5100;45.176;5.714;2023-04-24T01:09:40;1.70;;;1.60;;
10120;SDS011;5100;45.176;5.714;2023-04-24T01:12:09;2.03;;;1.48;;
10120;SDS011;5100;45.176;5.714;2023-04-24T01:14:37;1.80;;;1.70;;
10120;SDS011;5100;45.176;5.714;2023-04-24T01:17:03;1.92;;;1.80;;
10120;SDS011;5100;45.176;5.714;2023-04-24T01:19:29;1.60;;;1.50;;
10120;SDS011;5100;45.176;5.714;2023-04-24T01:21:58;1.67;;;1.58;;
10120;SDS011;5100;45.176;5.714;2023-04-24T01:24:28;1.80;;;1.70;;
10120;SDS011;5100;45.176;5.714;2023-04-24T01:26:54;2.10;;;1.90;;
10120;SDS011;5100;45.176;5.714;2023-04-24T01:29:21;1.92;;;1.83;;
10120;SDS011;5100;45.176;5.714;2023-04-24T01:31:47;1.60;;;1.50;;
10120;SDS011;5100;45.176;5.714;2023-04-24T01:34:13;2.37;;;1.50;;
10120;SDS011;5100;45.176;5.714;2023-04-24T01:36:40;1.85;;;1.52;;
10120;SDS011;5100;45.176;5.714;2023-04-24T01:39:08;1.77;;;1.67;;
10120;SDS011;5100;45.176;5.714;2023-04-24T01:41:34;2.00;;;1.30;;
10120;SDS011;5100;45.176;5.714;2023-04-24T01:44:01;1.35;;;1.35;;
10120;SDS011;5100;45.176;5.714;2023-04-24T01:46:27;1.58;;;1.48;;
10120;SDS011;5100;45.176;5.714;2023-04-24T01:48:53;1.58;;;1.48;;
10120;SDS011;5100;45.176;5.714;2023-04-24T01:51:20;1.70;;;1.60;;
10120;SDS011;5100;45.176;5.714;2023-04-24T01:53:46;1.87;;;1.48;;
10120;SDS011;5100;45.176;5.714;2023-04-24T01:56:12;1.67;;;1.30;;
10120;SDS011;5100;45.176;5.714;2023-04-24T01:58:39;2.20;;;1.67;;
10120;SDS011;5100;45.176;5.714;2023-04-24T02:01:06;1.40;;;1.30;;
10120;SDS011;5100;45.176;5.714;2023-04-24T02:03:32;1.75;;;1.52;;
10120;SDS011;5100;45.176;5.714;2023-04-24T02:05:58;1.50;;;1.40;;
10120;SDS011;5100;45.176;5.714;2023-04-24T02:08:24;2.55;;;1.58;;
10120;SDS011;5100;45.176;5.714;2023-04-24T02:10:51;1.60;;;1.50;;
10120;SDS011;5100;45.176;5.714;2023-04-24T02:13:17;1.67;;;1.40;;
10120;SDS011;5100;45.176;5.714;2023-04-24T02:15:43;2.17;;;1.42;;
10120;SDS011;5100;45.176;5.714;2023-04-24T02:18:09;3.65;;;1.10;;
10120;SDS011;5100;45.176;5.714;2023-04-24T02:20:37;0.98;;;0.98;;
10120;SDS011;5100;45.176;5.714;2023-04-24T02:23:03;2.35;;;1.27;;
10120;SDS011;5100;45.176;5.714;2023-04-24T02:25:29;2.42;;;1.02;;
10120;SDS011;5100;45.176;5.714;2023-04-24T02:27:55;0.90;;;0.90;;
10120;SDS011;5100;45.176;5.714;2023-04-24T02:30:21;2.72;;;1.45;;
10120;SDS011;5100;45.176;5.714;2023-04-24T02:32:47;2.87;;;0.80;;
10120;SDS011;5100;45.176;5.714;2023-04-24T02:35:13;0.80;;;0.80;;
10120;SDS011;5100;45.176;5.714;2023-04-24T02:37:40;1.55;;;0.90;;
10120;SDS011;5100;45.176;5.714;2023-04-24T02:40:06;2.78;;;1.20;;
10120;SDS011;5100;45.176;5.714;2023-04-24T02:42:33;0.95;;;0.95;;
10120;SDS011;5100;45.176;5.714;2023-04-24T02:44:59;1.00;;;1.00;;
10120;SDS011;5100;45.176;5.714;2023-04-24T02:47:25;2.10;;;0.90;;
10120;SDS011;5100;45.176;5.714;2023-04-24T02:49:51;0.90;;;0.90;;
10120;SDS011;5100;45.176;5.714;2023-04-24T02:52:17;1.48;;;1.00;;
10120;SDS011;5100;45.176;5.714;2023-04-24T02:54:43;4.18;;;0.90;;
10120;SDS011;5100;45.176;5.714;2023-04-24T02:57:10;1.20;;;0.90;;
10120;SDS011;5100;45.176;5.714;2023-04-24T02:59:36;1.15;;;0.90;;
10120;SDS011;5100;45.176;5.714;2023-04-24T03:02:02;1.10;;;1.10;;
10120;SDS011;5100;45.176;5.714;2023-04-24T03:04:28;1.42;;;1.30;;
10120;SDS011;5100;45.176;5.714;2023-04-24T03:06:54;1.12;;;1.08;;
10120;SDS011;5100;45.176;5.714;2023-04-24T03:09:21;1.40;;;1.30;;
10120;SDS011;5100;45.176;5.714;2023-04-24T03:11:47;1.10;;;1.00;;
10120;SDS011;5100;45.176;5.714;2023-04-24T03:14:14;1.00;;;1.00;;
10120;SDS011;5100;45.176;5.714;2023-04-24T03:16:41;2.10;;;1.77;;
10120;SDS011;5100;45.176;5.714;2023-04-24T03:19:07;1.85;;;1.30;;
10120;SDS011;5100;45.176;5.714;2023-04-24T03:21:34;1.20;;;1.10;;
10120;SDS011;5100;45.176;5.714;2023-04-24T03:24:01;1.42;;;1.00;;
10120;SDS011;5100;45.176;5.714;2023-04-24T03:26:27;2.80;;;1.10;;
10120;SDS011;5100;45.176;5.714;2023-04-24T03:28:55;1.40;;;1.30;;
10120;SDS011;5100;45.176;5.714;2023-04-24T03:31:22;2.58;;;1.05;;
10120;SDS011;5100;45.176;5.714;2023-04-24T03:33:49;0.98;;;0.90;;
10120;SDS011;5100;45.176;5.714;2023-04-24T03:36:16;1.30;;;1.20;;
10120;SDS011;5100;45.176;5.714;2023-04-24T03:38:44;3.90;;;1.20;;
10120;SDS011;5100;45.176;5.714;2023-04-24T03:41:12;3.40;;;1.20;;
10120;SDS011;5100;45.176;5.714;2023-04-24T03:43:39;1.17;;;1.17;;
10120;SDS011;5100;45.176;5.714;2023-04-24T03:46:05;2.10;;;1.10;;
10120;SDS011;5100;45.176;5.714;2023-04-24T03:48:35;2.67;;;1.10;;
10120;SDS011;5100;45.176;5.714;2023-04-24T03:51:01;1.20;;;1.10;;
10120;SDS011;5100;45.176;5.714;2023-04-24T03:53:28;1.37;;;1.27;;
10120;SDS011;5100;45.176;5.714;2023-04-24T03:55:55;0.93;;;0.93;;
10120;SDS011;5100;45.176;5.714;2023-04-24T03:58:21;2.87;;;1.20;;
10120;SDS011;5100;45.176;5.714;2023-04-24T04:00:48;0.90;;;0.90;;
10120;SDS011;5100;45.176;5.714;2023-04-24T04:03:16;3.57;;;1.57;;
10120;SDS011;5100;45.176;5.714;2023-04-24T04:05:42;1.05;;;0.98;;
10120;SDS011;5100;45.176;5.714;2023-04-24T04:08:09;1.20;;;1.10;;
10120;SDS011;5100;45.176;5.714;2023-04-24T04:10:35;8.25;;;1.30;;
10120;SDS011;5100;45.176;5.714;2023-04-24T04:13:03;1.45;;;1.10;;
10120;SDS011;5100;45.176;5.714;2023-04-24T04:15:30;1.23;;;1.10;;
10120;SDS011;5100;45.176;5.714;2023-04-24T04:17:56;0.88;;;0.88;;
10120;SDS011;5100;45.176;5.714;2023-04-24T04:20:22;1.65;;;1.27;;
10120;SDS011;5100;45.176;5.714;2023-04-24T04:22:48;1.42;;;1.15;;
10120;SDS011;5100;45.176;5.714;2023-04-24T04:25:15;1.30;;;1.20;;
10120;SDS011;5100;45.176;5.714;2023-04-24T04:27:43;2.05;;;1.27;;
10120;SDS011;5100;45.176;5.714;2023-04-24T04:30:10;2.90;;;2.28;;
10120;SDS011;5100;45.176;5.714;2023-04-24T04:32:38;2.92;;;2.20;;
10120;SDS011;5100;45.176;5.714;2023-04-24T04:35:04;1.90;;;1.80;;
10120;SDS011;5100;45.176;5.714;2023-04-24T04:37:31;2.73;;;1.83;;
10120;SDS011;5100;45.176;5.714;2023-04-24T04:40:00;1.70;;;1.60;;
10120;SDS011;5100;45.176;5.714;2023-04-24T04:42:32;1.70;;;1.50;;
10120;SDS011;5100;45.176;5.714;2023-04-24T04:45:00;1.87;;;1.30;;
10120;SDS011;5100;45.176;5.714;2023-04-24T04:47:27;1.20;;;1.10;;
10120;SDS011;5100;45.176;5.714;2023-04-24T04:49:54;2.33;;;1.40;;
10120;SDS011;5100;45.176;5.714;2023-04-24T04:52:20;2.67;;;1.33;;
10120;SDS011;5100;45.176;5.714;2023-04-24T04:54:51;1.30;;;1.20;;
10120;SDS011;5100;45.176;5.714;2023-04-24T04:57:17;1.80;;;1.10;;
10120;SDS011;5100;45.176;5.714;2023-04-24T04:59:44;1.33;;;1.17;;
10120;SDS011;5100;45.176;5.714;2023-04-24T05:02:10;1.75;;;1.17;;
10120;SDS011;5100;45.176;5.714;2023-04-24T05:04:37;1.30;;;1.20;;
10120;SDS011;5100;45.176;5.714;2023-04-24T05:07:03;1.60;;;1.10;;
10120;SDS011;5100;45.176;5.714;2023-04-24T05:09:30;1.55;;;1.20;;
10120;SDS011;5100;45.176;5.714;2023-04-24T05:11:57;3.87;;;1.58;;
10120;SDS011;5100;45.176;5.714;2023-04-24T05:14:23;1.83;;;1.20;;
10120;SDS011;5100;45.176;5.714;2023-04-24T05:16:49;1.67;;;1.10;;
10120;SDS011;5100;45.176;5.714;2023-04-24T05:19:17;2.73;;;1.23;;
10120;SDS011;5100;45.176;5.714;2023-04-24T05:21:44;3.60;;;1.17;;
10120;SDS011;5100;45.176;5.714;2023-04-24T05:24:10;3.20;;;1.12;;
10120;SDS011;5100;45.176;5.714;2023-04-24T05:26:37;2.08;;;1.42;;
10120;SDS011;5100;45.176;5.714;2023-04-24T05:29:03;2.15;;;1.20;;
10120;SDS011;5100;45.176;5.714;2023-04-24T05:31:30;7.10;;;1.60;;
10120;SDS011;5100;45.176;5.714;2023-04-24T05:33:56;2.87;;;1.35;;
10120;SDS011;5100;45.176;5.714;2023-04-24T05:36:23;1.52;;;1.30;;
10120;SDS011;5100;45.176;5.714;2023-04-24T05:38:49;1.23;;;1.12;;
10120;SDS011;5100;45.176;5.714;2023-04-24T05:41:15;2.87;;;1.30;;
10120;SDS011;5100;45.176;5.714;2023-04-24T05:43:41;1.50;;;1.40;;
10120;SDS011;5100;45.176;5.714;2023-04-24T05:46:07;2.25;;;1.70;;
10120;SDS011;5100;45.176;5.714;2023-04-24T05:48:33;1.50;;;1.40;;
10120;SDS011;5100;45.176;5.714;2023-04-24T05:51:00;2.10;;;1.50;;
10120;SDS011;5100;45.176;5.714;2023-04-24T05:53:26;2.42;;;1.50;;
10120;SDS011;5100;45.176;5.714;2023-04-24T05:55:53;1.48;;;1.37;;
10120;SDS011;5100;45.176;5.714;2023-04-24T05:58:19;2.78;;;1.80;;
10120;SDS011;5100;45.176;5.714;2023-04-24T06:00:45;1.55;;;1.45;;
10120;SDS011;5100;45.176;5.714;2023-04-24T06:03:12;2.22;;;1.70;;
10120;SDS011;5100;45.176;5.714;2023-04-24T06:05:38;4.05;;;2.08;;
10120;SDS011;5100;45.176;5.714;2023-04-24T06:08:04;2.70;;;2.12;;
10120;SDS011;5100;45.176;5.714;2023-04-24T06:10:31;2.53;;;1.80;;
10120;SDS011;5100;45.176;5.714;2023-04-24T06:12:57;2.03;;;1.80;;
10120;SDS011;5100;45.176;5.714;2023-04-24T06:15:27;2.20;;;2.00;;
10120;SDS011;5100;45.176;5.714;2023-04-24T06:17:56;2.08;;;1.90;;
10120;SDS011;5100;45.176;5.714;2023-04-24T06:20:23;2.10;;;1.90;;
10120;SDS011;5100;45.176;5.714;2023-04-24T06:22:49;3.20;;;2.60;;
10120;SDS011;5100;45.176;5.714;2023-04-24T06:25:16;3.15;;;2.12;;
10120;SDS011;5100;45.176;5.714;2023-04-24T06:27:42;3.97;;;2.42;;
10120;SDS011;5100;45.176;5.714;2023-04-24T06:30:08;2.20;;;2.00;;
10120;SDS011;5100;45.176;5.714;2023-04-24T06:32:35;2.33;;;1.90;;
10120;SDS011;5100;45.176;5.714;2023-04-24T06:35:01;1.90;;;1.80;;
10120;SDS011;5100;45.176;5.714;2023-04-24T06:37:27;2.00;;;1.80;;
10120;SDS011;5100;45.176;5.714;2023-04-24T06:39:53;3.10;;;1.77;;
10120;SDS011;5100;45.176;5.714;2023-04-24T06:42:19;2.00;;;1.80;;
10120;SDS011;5100;45.176;5.714;2023-04-24T06:44:50;1.90;;;1.70;;
10120;SDS011;5100;45.176;5.714;2023-04-24T06:47:16;3.70;;;2.50;;
10120;SDS011;5100;45.176;5.714;2023-04-24T06:49:42;3.27;;;2.17;;
10120;SDS011;5100;45.176;5.714;2023-04-24T06:52:08;2.20;;;2.00;;
10120;SDS011;5100;45.176;5.714;2023-04-24T06:54:35;2.50;;;1.87;;
10120;SDS011;5100;45.176;5.714;2023-04-24T06:57:00;2.40;;;1.50;;
10120;SDS011;5100;45.176;5.714;2023-04-24T06:59:28;1.60;;;1.50;;
10120;SDS011;5100;45.176;5.714;2023-04-24T07:01:55;2.47;;;1.95;;
10120;SDS011;5100;45.176;5.714;2023-04-24T07:04:21;2.85;;;1.83;;
10120;SDS011;5100;45.176;5.714;2023-04-24T07:06:48;2.95;;;2.03;;
10120;SDS011;5100;45.176;5.714;2023-04-24T07:09:17;1.40;;;1.30;;
10120;SDS011;5100;45.176;5.714;2023-04-24T07:11:44;1.42;;;1.30;;
10120;SDS011;5100;45.176;5.714;2023-04-24T07:14:10;2.33;;;1.50;;
10120;SDS011;5100;45.176;5.714;2023-04-24T07:16:38;3.97;;;1.90;;
10120;SDS011;5100;45.176;5.714;2023-04-24T07:19:04;3.05;;;1.70;;
10120;SDS011;5100;45.176;5.714;2023-04-24T07:21:30;3.55;;;2.25;;
10120;SDS011;5100;45.176;5.714;2023-04-24T07:23:58;1.55;;;1.30;;
10120;SDS011;5100;45.176;5.714;2023-04-24T07:26:24;3.00;;;1.42;;
10120;SDS011;5100;45.176;5.714;2023-04-24T07:28:51;1.65;;;1.37;;
10120;SDS011;5100;45.176;5.714;2023-04-24T07:31:17;1.35;;;1.20;;
10120;SDS011;5100;45.176;5.714;2023-04-24T07:33:43;1.35;;;1.10;;
10120;SDS011;5100;45.176;5.714;2023-04-24T07:36:09;1.15;;;1.10;;
10120;SDS011;5100;45.176;5.714;2023-04-24T07:38:41;2.37;;;1.23;;
10120;SDS011;5100;45.176;5.714;2023-04-24T07:41:08;1.87;;;1.20;;
10120;SDS011;5100;45.176;5.714;2023-04-24T07:43:34;2.15;;;1.00;;
10120;SDS011;5100;45.176;5.714;2023-04-24T07:46:01;2.37;;;1.58;;
10120;SDS011;5100;45.176;5.714;2023-04-24T07:48:27;5.28;;;1.23;;
10120;SDS011;5100;45.176;5.714;2023-04-24T07:50:53;1.15;;;1.10;;
10120;SDS011;5100;45.176;5.714;2023-04-24T07:53:20;2.62;;;1.30;;
10120;SDS011;5100;45.176;5.714;2023-04-24T07:55:46;1.40;;;1.30;;
10120;SDS011;5100;45.176;5.714;2023-04-24T07:58:12;0.95;;;0.95;;
10120;SDS011;5100;45.176;5.714;2023-04-24T08:00:38;1.30;;;1.20;;
10120;SDS011;5100;45.176;5.714;2023-04-24T08:03:04;0.82;;;0.80;;
10120;SDS011;5100;45.176;5.714;2023-04-24T08:05:30;1.45;;;1.17;;
10120;SDS011;5100;45.176;5.714;2023-04-24T08:07:57;2.00;;;0.90;;
10120;SDS011;5100;45.176;5.714;2023-04-24T08:10:24;1.20;;;1.10;;
10120;SDS011;5100;45.176;5.714;2023-04-24T08:12:50;2.45;;;1.15;;
10120;SDS011;5100;45.176;5.714;2023-04-24T08:15:17;11.63;;;1.33;;
10120;SDS011;5100;45.176;5.714;2023-04-24T08:17:43;3.83;;;1.42;;
10120;SDS011;5100;45.176;5.714;2023-04-24T08:20:10;2.58;;;1.33;;
10120;SDS011;5100;45.176;5.714;2023-04-24T08:22:42;1.77;;;1.20;;
10120;SDS011;5100;45.176;5.714;2023-04-24T08:25:10;1.90;;;1.70;;
10120;SDS011;5100;45.176;5.714;2023-04-24T08:27:36;2.78;;;1.37;;
10120;SDS011;5100;45.176;5.714;2023-04-24T08:30:03;2.90;;;1.50;;
10120;SDS011;5100;45.176;5.714;2023-04-24T08:32:30;2.75;;;1.40;;
10120;SDS011;5100;45.176;5.714;2023-04-24T08:34:58;6.07;;;1.60;;
10120;SDS011;5100;45.176;5.714;2023-04-24T08:37:25;1.55;;;1.45;;
10120;SDS011;5100;45.176;5.714;2023-04-24T08:39:53;3.22;;;1.40;;
10120;SDS011;5100;45.176;5.714;2023-04-24T08:42:19;5.30;;;1.92;;
10120;SDS011;5100;45.176;5.714;2023-04-24T08:44:46;1.55;;;1.40;;
10120;SDS011;5100;45.176;5.714;2023-04-24T08:47:15;1.67;;;1.40;;
10120;SDS011;5100;45.176;5.714;2023-04-24T08:49:41;1.50;;;1.35;;
10120;SDS011;5100;45.176;5.714;2023-04-24T08:52:08;3.08;;;1.62;;
10120;SDS011;5100;45.176;5.714;2023-04-24T08:54:34;1.77;;;1.50;;
10120;SDS011;5100;45.176;5.714;2023-04-24T08:57:01;1.80;;;1.52;;
10120;SDS011;5100;45.176;5.714;2023-04-24T08:59:29;2.70;;;1.40;;
10120;SDS011;5100;45.176;5.714;2023-04-24T09:01:56;4.80;;;2.40;;
10120;SDS011;5100;45.176;5.714;2023-04-24T09:04:23;4.00;;;3.05;;
10120;SDS011;5100;45.176;5.714;2023-04-24T09:06:59;2.95;;;2.70;;
10120;SDS011;5100;45.176;5.714;2023-04-24T09:09:26;3.12;;;2.65;;
10120;SDS011;5100;45.176;5.714;2023-04-24T09:11:56;2.90;;;2.42;;
10120;SDS011;5100;45.176;5.714;2023-04-24T09:14:23;3.40;;;2.12;;
10120;SDS011;5100;45.176;5.714;2023-04-24T09:16:50;2.47;;;1.98;;
10120;SDS011;5100;45.176;5.714;2023-04-24T09:19:16;2.20;;;1.83;;
10120;SDS011;5100;45.176;5.714;2023-04-24T09:21:45;2.20;;;1.33;;
10120;SDS011;5100;45.176;5.714;2023-04-24T09:24:17;1.67;;;1.05;;
10120;SDS011;5100;45.176;5.714;2023-04-24T09:26:45;4.12;;;1.50;;
10120;SDS011;5100;45.176;5.714;2023-04-24T09:29:15;1.75;;;1.40;;
10120;SDS011;5100;45.176;5.714;2023-04-24T09:31:43;2.35;;;1.40;;
10120;SDS011;5100;45.176;5.714;2023-04-24T09:34:11;1.60;;;1.50;;
10120;SDS011;5100;45.176;5.714;2023-04-24T09:36:38;1.35;;;1.25;;
10120;SDS011;5100;45.176;5.714;2023-04-24T09:39:11;1.48;;;1.37;;
10120;SDS011;5100;45.176;5.714;2023-04-24T09:41:51;1.73;;;1.30;;
10120;SDS011;5100;45.176;5.714;2023-04-24T09:44:22;1.40;;;1.30;;
10120;SDS011;5100;45.176;5.714;2023-04-24T09:46:53;2.50;;;1.45;;
10120;SDS011;5100;45.176;5.714;2023-04-24T09:49:25;1.20;;;1.10;;
10120;SDS011;5100;45.176;5.714;2023-04-24T09:52:09;2.80;;;1.25;;
10120;SDS011;5100;45.176;5.714;2023-04-24T09:54:36;1.60;;;1.30;;
10120;SDS011;5100;45.176;5.714;2023-04-24T09:57:04;2.05;;;1.25;;
10120;SDS011;5100;45.176;5.714;2023-04-24T09:59:32;1.75;;;1.12;;
10120;SDS011;5100;45.176;5.714;2023-04-24T10:02:01;1.58;;;1.17;;
10120;SDS011;5100;45.176;5.714;2023-04-24T10:04:28;1.77;;;1.25;;
10120;SDS011;5100;45.176;5.714;2023-04-24T10:06:55;1.27;;;1.17;;
10120;SDS011;5100;45.176;5.714;2023-04-24T10:09:24;1.80;;;1.25;;
10120;SDS011;5100;45.176;5.714;2023-04-24T10:11:52;1.27;;;1.17;;
10120;SDS011;5100;45.176;5.714;2023-04-24T10:14:23;1.50;;;1.30;;
10120;SDS011;5100;45.176;5.714;2023-04-24T10:16:52;1.30;;;1.20;;
10120;SDS011;5100;45.176;5.714;2023-04-24T10:19:19;1.23;;;1.12;;
10120;SDS011;5100;45.176;5.714;2023-04-24T10:21:45;1.60;;;1.50;;
10120;SDS011;5100;45.176;5.714;2023-04-24T10:24:13;1.55;;;1.20;;
10120;SDS011;5100;45.176;5.714;2023-04-24T10:26:40;1.33;;;0.95;;
10120;SDS011;5100;45.176;5.714;2023-04-24T10:29:06;1.23;;;1.12;;
10120;SDS011;5100;45.176;5.714;2023-04-24T10:31:36;1.65;;;1.52;;
10120;SDS011;5100;45.176;5.714;2023-04-24T10:34:06;1.73;;;1.30;;
10120;SDS011;5100;45.176;5.714;2023-04-24T10:36:32;1.37;;;1.20;;
10120;SDS011;5100;45.176;5.714;2023-04-24T10:39:01;1.20;;;1.10;;
10120;SDS011;5100;45.176;5.714;2023-04-24T10:41:31;1.10;;;1.10;;
10120;SDS011;5100;45.176;5.714;2023-04-24T10:44:04;1.27;;;1.10;;
10120;SDS011;5100;45.176;5.714;2023-04-24T10:46:34;1.30;;;1.20;;
10120;SDS011;5100;45.176;5.714;2023-04-24T10:49:03;2.00;;;1.25;;
10120;SDS011;5100;45.176;5.714;2023-04-24T10:51:48;2.35;;;1.25;;
10120;SDS011;5100;45.176;5.714;2023-04-24T10:54:26;1.50;;;1.40;;
10120;SDS011;5100;45.176;5.714;2023-04-24T10:57:48;4.03;;;1.50;;
10120;SDS011;5100;45.176;5.714;2023-04-24T11:00:12;1.50;;;1.40;;
10120;SDS011;5100;45.176;5.714;2023-04-24T11:02:39;3.67;;;1.73;;
10120;SDS011;5100;45.176;5.714;2023-04-24T11:05:09;1.42;;;1.33;;
10120;SDS011;5100;45.176;5.714;2023-04-24T11:11:16;1.00;;;1.00;;
10120;SDS011;5100;45.176;5.714;2023-04-24T11:16:29;1.30;;;1.20;;
10120;SDS011;5100;45.176;5.714;2023-04-24T11:19:02;2.45;;;1.48;;
10120;SDS011;5100;45.176;5.714;2023-04-24T11:21:38;1.92;;;1.25;;
10120;SDS011;5100;45.176;5.714;2023-04-24T11:24:25;1.83;;;1.33;;
10120;SDS011;5100;45.176;5.714;2023-04-24T11:27:07;1.87;;;1.10;;
10120;SDS011;5100;45.176;5.714;2023-04-24T11:32:14;1.27;;;1.10;;
10120;SDS011;5100;45.176;5.714;2023-04-24T11:34:49;1.20;;;1.20;;
10120;SDS011;5100;45.176;5.714;2023-04-24T11:37:17;1.37;;;1.20;;
10120;SDS011;5100;45.176;5.714;2023-04-24T11:39:43;0.90;;;0.90;;
10120;SDS011;5100;45.176;5.714;2023-04-24T11:42:09;1.23;;;1.12;;
10120;SDS011;5100;45.176;5.714;2023-04-24T11:44:35;3.35;;;1.30;;
10120;SDS011;5100;45.176;5.714;2023-04-24T11:47:05;1.48;;;1.30;;
10120;SDS011;5100;45.176;5.714;2023-04-24T11:49:32;1.00;;;1.00;;
10120;SDS011;5100;45.176;5.714;2023-04-24T11:52:01;0.98;;;0.98;;
10120;SDS011;5100;45.176;5.714;2023-04-24T11:54:27;0.90;;;0.90;;
10120;SDS011;5100;45.176;5.714;2023-04-24T11:56:53;0.95;;;0.93;;
10120;SDS011;5100;45.176;5.714;2023-04-24T11:59:21;1.08;;;1.00;;
10120;SDS011;5100;45.176;5.714;2023-04-24T12:01:48;1.10;;;1.05;;
10120;SDS011;5100;45.176;5.714;2023-04-24T12:04:16;0.90;;;0.90;;
10120;SDS011;5100;45.176;5.714;2023-04-24T12:06:58;1.10;;;1.00;;
10120;SDS011;5100;45.176;5.714;2023-04-24T12:09:29;2.60;;;1.52;;
10120;SDS011;5100;45.176;5.714;2023-04-24T12:12:26;1.55;;;1.10;;
10120;SDS011;5100;45.176;5.714;2023-04-24T12:14:56;1.00;;;0.93;;
10120;SDS011;5100;45.176;5.714;2023-04-24T12:17:24;1.00;;;1.00;;
10120;SDS011;5100;45.176;5.714;2023-04-24T12:19:51;0.93;;;0.93;;
10120;SDS011;5100;45.176;5.714;2023-04-24T12:22:19;0.98;;;0.90;;
10120;SDS011;5100;45.176;5.714;2023-04-24T12:27:24;0.90;;;0.90;;
10120;SDS011;5100;45.176;5.714;2023-04-24T12:29:51;1.12;;;0.90;;
10120;SDS011;5100;45.176;5.714;2023-04-24T12:32:18;0.93;;;0.90;;
10120;SDS011;5100;45.176;5.714;2023-04-24T12:34:45;3.05;;;0.95;;
10120;SDS011;5100;45.176;5.714;2023-04-24T12:37:11;0.93;;;0.80;;
10120;SDS011;5100;45.176;5.714;2023-04-24T12:39:38;0.90;;;0.90;;
10120;SDS011;5100;45.176;5.714;2023-04-24T12:42:04;1.90;;;1.20;;
10120;SDS011;5100;45.176;5.714;2023-04-24T12:44:31;0.85;;;0.85;;
10120;SDS011;5100;45.176;5.714;2023-04-24T12:47:02;2.05;;;1.42;;
10120;SDS011;5100;45.176;5.714;2023-04-24T12:49:30;1.67;;;1.00;;
10120;SDS011;5100;45.176;5.714;2023-04-24T12:51:56;1.35;;;1.00;;
10120;SDS011;5100;45.176;5.714;2023-04-24T12:54:22;1.02;;;0.90;;
10120;SDS011;5100;45.176;5.714;2023-04-24T12:56:48;0.88;;;0.88;;
10120;SDS011;5100;45.176;5.714;2023-04-24T12:59:14;2.10;;;1.17;;
10120;SDS011;5100;45.176;5.714;2023-04-24T13:01:41;1.02;;;0.90;;
10120;SDS011;5100;45.176;5.714;2023-04-24T13:04:07;1.00;;;1.00;;
10120;SDS011;5100;45.176;5.714;2023-04-24T13:06:33;2.53;;;0.80;;
10120;SDS011;5100;45.176;5.714;2023-04-24T13:08:59;1.10;;;1.00;;
10120;SDS011;5100;45.176;5.714;2023-04-24T13:11:25;1.33;;;1.02;;
10120;SDS011;5100;45.176;5.714;2023-04-24T13:13:51;1.15;;;0.90;;
10120;SDS011;5100;45.176;5.714;2023-04-24T13:16:17;1.65;;;1.23;;
10120;SDS011;5100;45.176;5.714;2023-04-24T13:18:44;1.10;;;1.10;;
10120;SDS011;5100;45.176;5.714;2023-04-24T13:21:10;0.90;;;0.90;;
10120;SDS011;5100;45.176;5.714;2023-04-24T13:23:36;1.40;;;1.10;;
10120;SDS011;5100;45.176;5.714;2023-04-24T13:26:03;1.08;;;1.00;;
10120;SDS011;5100;45.176;5.714;2023-04-24T13:28:29;1.27;;;1.17;;
10120;SDS011;5100;45.176;5.714;2023-04-24T13:30:55;1.62;;;1.20;;
10120;SDS011;5100;45.176;5.714;2023-04-24T13:33:22;3.22;;;1.10;;
10120;SDS011;5100;45.176;5.714;2023-04-24T13:35:48;1.17;;;1.10;;
10120;SDS011;5100;45.176;5.714;2023-04-24T13:38:14;1.75;;;1.20;;
10120;SDS011;5100;45.176;5.714;2023-04-24T13:40:40;1.62;;;1.20;;
10120;SDS011;5100;45.176;5.714;2023-04-24T13:43:06;1.45;;;1.20;;
10120;SDS011;5100;45.176;5.714;2023-04-24T13:45:32;1.67;;;1.10;;
10120;SDS011;5100;45.176;5.714;2023-04-24T13:47:58;1.20;;;1.10;;
10120;SDS011;5100;45.176;5.714;2023-04-24T13:50:25;1.98;;;1.17;;
10120;SDS011;5100;45.176;5.714;2023-04-24T13:52:51;3.85;;;1.08;;
10120;SDS011;5100;45.176;5.714;2023-04-24T13:55:17;2.03;;;1.15;;
10120;SDS011;5100;45.176;5.714;2023-04-24T13:57:43;1.20;;;1.10;;
10120;SDS011;5100;45.176;5.714;2023-04-24T14:00:09;2.90;;;1.30;;
10120;SDS011;5100;45.176;5.714;2023-04-24T14:02:36;1.87;;;1.20;;
10120;SDS011;5100;45.176;5.714;2023-04-24T14:05:02;1.65;;;1.10;;
10120;SDS011;5100;45.176;5.714;2023-04-24T14:07:28;1.67;;;1.27;;
10120;SDS011;5100;45.176;5.714;2023-04-24T14:09:55;1.87;;;1.25;;
10120;SDS011;5100;45.176;5.714;2023-04-24T14:12:22;1.00;;;1.00;;
10120;SDS011;5100;45.176;5.714;2023-04-24T14:14:48;2.87;;;1.42;;
10120;SDS011;5100;45.176;5.714;2023-04-24T14:17:14;2.70;;;1.10;;
10120;SDS011;5100;45.176;5.714;2023-04-24T14:19:40;2.60;;;1.10;;
10120;SDS011;5100;45.176;5.714;2023-04-24T14:22:06;4.10;;;1.33;;
10120;SDS011;5100;45.176;5.714;2023-04-24T14:24:33;2.00;;;1.30;;
10120;SDS011;5100;45.176;5.714;2023-04-24T14:26:58;2.75;;;2.25;;
10120;SDS011;5100;45.176;5.714;2023-04-24T14:29:25;1.48;;;1.33;;
10120;SDS011;5100;45.176;5.714;2023-04-24T14:31:51;1.35;;;1.10;;
10120;SDS011;5100;45.176;5.714;2023-04-24T14:34:17;1.52;;;1.20;;
10120;SDS011;5100;45.176;5.714;2023-04-24T14:36:44;1.10;;;1.10;;
10120;SDS011;5100;45.176;5.714;2023-04-24T14:39:11;1.58;;;1.10;;
10120;SDS011;5100;45.176;5.714;2023-04-24T14:41:37;2.05;;;1.10;;
10120;SDS011;5100;45.176;5.714;2023-04-24T14:44:04;0.90;;;0.90;;
10120;SDS011;5100;45.176;5.714;2023-04-24T14:46:31;1.23;;;1.12;;
10120;SDS011;5100;45.176;5.714;2023-04-24T14:48:57;2.08;;;1.08;;
10120;SDS011;5100;45.176;5.714;2023-04-24T14:51:23;1.23;;;1.12;;
10120;SDS011;5100;45.176;5.714;2023-04-24T14:53:51;1.08;;;1.02;;
10120;SDS011;5100;45.176;5.714;2023-04-24T14:56:17;2.83;;;1.30;;
10120;SDS011;5100;45.176;5.714;2023-04-24T14:58:43;1.27;;;1.17;;
10120;SDS011;5100;45.176;5.714;2023-04-24T15:01:10;1.02;;;0.95;;
10120;SDS011;5100;45.176;5.714;2023-04-24T15:03:36;1.10;;;1.10;;
10120;SDS011;5100;45.176;5.714;2023-04-24T15:06:02;1.37;;;1.27;;
10120;SDS011;5100;45.176;5.714;2023-04-24T15:08:28;1.30;;;1.20;;
10120;SDS011;5100;45.176;5.714;2023-04-24T15:10:54;1.52;;;1.10;;
10120;SDS011;5100;45.176;5.714;2023-04-24T15:13:20;1.48;;;1.37;;